Time;durP1;ratioP1;P1;durP2;ratioP2;P2;SDS_P1;SDS_P2;PMS_P1;PMS_P2;Temp;Humidity;BMP_temperature;BMP_pressure;BME280_temperature;BME280_humidity;BME280_pressure;Samples;Min_cycle;Max_cycle;Signal;HPM_P1;HPM_P2
2022/01/24 00:00:37;;;;;;;6.97;3.42;;;;;;;-1.87;73.71;100542.38;3136847;28;20644;-63
2022/01/24 00:02:09;;;;;;;7.25;3.15;;;;;;;-1.87;73.69;100552.56;3143212;28;20047;-62
2022/01/24 00:03:42;;;;;;;7.97;3.38;;;;;;;-1.86;73.67;100548.34;3138163;28;20063;-62
2022/01/24 00:05:16;;;;;;;8.75;3.55;;;;;;;-1.88;73.83;100545.75;3139060;28;20048;-62
2022/01/24 00:06:48;;;;;;;7.40;3.70;;;;;;;-1.87;73.68;100549.16;3141686;28;20805;-62
2022/01/24 00:08:21;;;;;;;8.52;3.50;;;;;;;-1.88;73.70;100545.75;3135130;28;20048;-65
2022/01/24 00:09:57;;;;;;;8.30;3.60;;;;;;;-1.84;73.56;100549.22;3139173;28;20783;-62
2022/01/24 00:11:39;;;;;;;7.15;3.15;;;;;;;-1.84;73.47;100551.78;3141802;28;20060;-62
2022/01/24 00:13:48;;;;;;;8.60;3.78;;;;;;;-1.88;73.29;100550.88;3135337;28;20044;-62
2022/01/24 00:15:19;;;;;;;6.97;2.90;;;;;;;-1.89;73.27;100561.91;3137956;28;20581;-62
2022/01/24 00:17:05;;;;;;;7.55;3.33;;;;;;;-1.87;73.22;100555.13;3134837;28;20074;-62
2022/01/24 00:26:41;;;;;;;9.38;4.07;;;;;;;-1.91;73.22;100547.41;3141591;28;20063;-62
2022/01/24 00:27:48;;;;;;;10.00;4.45;;;;;;;-1.77;72.89;100563.81;3137107;28;20208;-63
2022/01/24 00:29:22;;;;;;;10.52;4.35;;;;;;;-1.72;72.69;100569.00;3136846;28;20775;-62
2022/01/24 00:30:56;;;;;;;10.30;3.67;;;;;;;-1.71;72.46;100566.47;3138579;28;20189;-62
2022/01/24 00:32:28;;;;;;;13.05;4.50;;;;;;;-1.72;72.38;100569.84;3137564;28;20584;-65
2022/01/24 00:34:00;;;;;;;9.30;4.28;;;;;;;-1.70;72.42;100567.34;3142501;28;20044;-63
2022/01/24 00:35:33;;;;;;;13.38;5.07;;;;;;;-1.67;72.09;100563.13;3140240;28;20165;-64
2022/01/24 00:37:06;;;;;;;10.60;3.93;;;;;;;-1.67;72.02;100570.78;3138584;28;20057;-63
2022/01/24 00:38:38;;;;;;;11.15;4.35;;;;;;;-1.65;71.92;100578.50;3145055;28;20875;-64
2022/01/24 00:40:11;;;;;;;10.60;4.97;;;;;;;-1.62;71.84;100576.00;3136191;28;20057;-63
2022/01/24 00:41:49;;;;;;;10.52;4.40;;;;;;;-1.63;71.45;100575.13;3139508;28;20044;-63
2022/01/24 00:43:29;;;;;;;11.18;4.43;;;;;;;-1.61;71.55;100577.69;3142068;28;20049;-63
2022/01/24 00:45:09;;;;;;;10.30;4.47;;;;;;;-1.61;71.62;100568.34;3135586;28;20052;-63
2022/01/24 00:46:48;;;;;;;10.15;4.22;;;;;;;-1.58;71.35;100571.78;3153628;28;20052;-64
2022/01/24 00:48:32;;;;;;;9.88;4.10;;;;;;;-1.58;71.30;100569.25;3145023;28;20075;-63
2022/01/24 00:54:01;;;;;;;7.38;3.33;;;;;;;-1.61;71.24;100570.91;3149916;28;20041;-63
2022/01/24 00:55:31;;;;;;;4.45;2.45;;;;;;;-1.67;71.18;100568.25;3153370;28;20052;-63
2022/01/24 00:57:05;;;;;;;7.93;3.83;;;;;;;-1.56;71.04;100580.34;3145078;28;20545;-63
2022/01/24 00:58:36;;;;;;;5.78;3.40;;;;;;;-1.56;70.89;100576.09;3154252;28;20044;-63
2022/01/24 01:00:10;;;;;;;6.45;3.10;;;;;;;-1.53;70.71;100581.25;3149315;28;20512;-63
2022/01/24 01:01:43;;;;;;;9.32;3.40;;;;;;;-1.50;70.60;100583.00;3148353;28;20453;-63
2022/01/24 01:03:17;;;;;;;8.75;3.95;;;;;;;-1.51;70.47;100571.03;3151231;28;20036;-63
2022/01/24 01:05:03;;;;;;;9.63;4.05;;;;;;;-1.54;70.45;100576.94;3144801;28;20060;-63
2022/01/24 01:06:38;;;;;;;11.07;4.40;;;;;;;-1.55;70.29;100576.94;3150553;28;20138;-63
2022/01/24 01:19:10;;;;;;;8.13;4.10;;;;;;;-1.65;70.01;100604.03;3153395;28;20076;-63
2022/01/24 01:21:04;;;;;;;7.13;3.63;;;;;;;-1.64;69.71;100604.03;3144781;28;20052;-63
2022/01/24 01:22:36;;;;;;;8.35;3.72;;;;;;;-1.81;69.72;100582.47;3153075;28;20040;-63
2022/01/24 01:24:07;;;;;;;9.07;3.70;;;;;;;-1.66;69.57;100604.84;3153105;28;20112;-63
2022/01/24 01:25:41;;;;;;;7.95;3.63;;;;;;;-1.68;69.50;100609.94;3148868;28;20044;-63
2022/01/24 01:27:17;;;;;;;6.93;3.10;;;;;;;-1.69;69.44;100608.22;3153216;28;20071;-62
2022/01/24 01:28:55;;;;;;;5.75;3.45;;;;;;;-1.69;69.37;100607.34;3144572;28;20059;-62
2022/01/24 01:30:36;;;;;;;8.98;3.60;;;;;;;-1.72;69.46;100604.75;3150907;28;20048;-62
2022/01/24 01:32:15;;;;;;;6.65;3.40;;;;;;;-1.76;69.28;100600.44;3147285;28;20079;-62
2022/01/24 01:33:58;;;;;;;6.38;3.30;;;;;;;-1.78;69.53;100604.63;3150414;28;20126;-63
2022/01/24 01:35:47;;;;;;;6.20;3.13;;;;;;;-1.81;69.48;100610.53;3152769;28;20501;-63
2022/01/24 01:39:33;;;;;;;7.95;3.72;;;;;;;-1.86;69.68;100607.06;3147874;28;20111;-63
2022/01/24 01:52:42;;;;;;;6.55;3.20;;;;;;;-2.39;69.97;100548.25;3132595;28;20052;-63
2022/01/24 01:54:27;;;;;;;9.93;3.47;;;;;;;-2.06;70.29;100605.00;3145790;28;20083;-63
2022/01/24 01:55:59;;;;;;;6.68;3.50;;;;;;;-2.08;70.22;100604.09;3150373;28;20048;-64
2022/01/24 01:57:31;;;;;;;7.05;3.20;;;;;;;-2.08;70.08;100601.53;3153328;28;20052;-63
2022/01/24 01:59:03;;;;;;;6.25;3.15;;;;;;;-2.08;70.11;100611.75;3151851;28;20044;-64
2022/01/24 02:00:37;;;;;;;6.57;3.25;;;;;;;-2.09;70.17;100612.59;3145151;28;20060;-64
2022/01/24 02:02:09;;;;;;;8.00;3.35;;;;;;;-2.20;70.20;100597.91;3148389;28;20052;-64
2022/01/24 02:03:41;;;;;;;7.85;3.30;;;;;;;-2.12;70.15;100620.19;3154278;28;20106;-63
2022/01/24 02:05:15;;;;;;;7.20;3.65;;;;;;;-2.13;70.27;100615.94;3147930;28;20083;-63
2022/01/24 02:06:47;;;;;;;7.28;3.60;;;;;;;-2.16;70.21;100610.78;3152415;28;20551;-64
2022/01/24 02:08:22;;;;;;;7.25;3.40;;;;;;;-2.18;70.22;100616.66;3148115;28;20052;-63
2022/01/24 02:09:53;;;;;;;11.30;4.32;;;;;;;-2.19;70.36;100610.72;3150858;28;20048;-64
2022/01/24 02:11:25;;;;;;;7.40;3.70;;;;;;;-2.19;70.35;100620.03;3153773;28;20070;-63
2022/01/24 02:12:57;;;;;;;8.25;4.18;;;;;;;-2.21;70.47;100622.56;3152950;28;20106;-64
2022/01/24 02:14:35;;;;;;;8.73;4.18;;;;;;;-2.21;70.52;100622.56;3154607;28;20040;-63
2022/01/24 02:16:13;;;;;;;8.40;4.40;;;;;;;-2.41;70.56;100590.69;3149337;28;20083;-63
2022/01/24 02:17:58;;;;;;;10.13;4.60;;;;;;;-2.42;70.63;100589.00;3147324;28;20603;-63
2022/01/24 02:19:36;;;;;;;9.20;4.43;;;;;;;-2.26;70.61;100620.75;3157810;28;20048;-63
2022/01/24 02:21:27;;;;;;;9.57;4.13;;;;;;;-2.50;70.74;100572.66;3146423;28;20084;-64
2022/01/24 02:23:20;;;;;;;8.77;4.18;;;;;;;-2.36;70.91;100604.41;3145779;28;20131;-64
2022/01/24 02:24:57;;;;;;;9.00;4.90;;;;;;;-2.33;70.87;100620.63;3139539;28;20055;-63
2022/01/24 02:26:29;;;;;;;8.20;4.45;;;;;;;-2.31;71.04;100626.63;3142117;28;20075;-63
2022/01/24 02:28:03;;;;;;;10.73;5.35;;;;;;;-2.30;70.80;100623.25;3143556;28;20063;-62
2022/01/24 02:29:49;;;;;;;12.68;5.68;;;;;;;-2.38;71.06;100611.16;3139758;28;20157;-63
2022/01/24 02:31:37;;;;;;;11.27;4.90;;;;;;;-2.32;71.16;100622.34;3146853;28;20048;-63
2022/01/24 02:33:10;;;;;;;10.88;4.93;;;;;;;-2.33;70.90;100629.97;3142055;28;20552;-63
2022/01/24 02:34:45;;;;;;;10.75;5.32;;;;;;;-2.34;70.98;100621.47;3143882;28;20135;-63
2022/01/24 02:36:21;;;;;;;13.75;5.70;;;;;;;-2.32;71.09;100626.59;3147618;28;20043;-63
2022/01/24 02:37:54;;;;;;;10.00;5.25;;;;;;;-2.37;71.13;100618.84;3146624;28;20371;-63
2022/01/24 02:48:39;;;;;;;10.80;5.30;;;;;;;-2.37;71.26;100638.38;3112408;28;20256;-63
2022/01/24 02:50:15;;;;;;;10.93;5.47;;;;;;;-2.34;71.17;100641.88;3128368;28;20319;-63
2022/01/24 02:51:48;;;;;;;12.60;5.75;;;;;;;-2.32;71.20;100647.00;3145315;28;20090;-63
2022/01/24 02:53:20;;;;;;;;;;;;;;;-2.50;71.39;100644.94;3146142;28;20087;-63
2022/01/24 02:54:52;;;;;;;11.32;5.07;;;;;;;-2.43;71.44;100648.47;3145124;28;20126;-63
2022/01/24 02:56:25;;;;;;;10.25;5.20;;;;;;;-2.42;71.36;100643.41;3140765;28;20576;-63
2022/01/24 02:57:56;;;;;;;12.65;5.85;;;;;;;-2.38;71.28;100641.78;3140221;28;20059;-63
2022/01/24 02:59:28;;;;;;;12.13;5.63;;;;;;;-2.36;71.26;100642.69;3145388;28;20051;-63
2022/01/24 03:01:00;;;;;;;10.10;4.78;;;;;;;-2.35;71.15;100652.91;3139682;28;21124;-63
2022/01/24 03:02:32;;;;;;;13.13;5.75;;;;;;;-2.53;71.18;100620.22;3147407;28;20730;-63
2022/01/24 03:04:04;;;;;;;10.75;5.13;;;;;;;-2.36;71.27;100643.53;3143714;28;20090;-64
2022/01/24 03:05:36;;;;;;;15.57;5.95;;;;;;;-2.37;71.14;100641.78;3136476;28;20098;-63
2022/01/24 03:07:10;;;;;;;9.95;5.38;;;;;;;-2.34;71.12;100653.75;3146758;28;20048;-63
2022/01/24 03:08:42;;;;;;;;;;;;;;;-2.53;71.31;100652.50;3139874;28;20236;-63
2022/01/24 03:10:24;;;;;;;10.10;5.20;;;;;;;-2.85;71.35;100588.06;3139787;28;20110;-63
2022/01/24 03:12:06;;;;;;;10.80;5.43;;;;;;;-2.45;71.19;100655.25;3143611;28;20054;-63
2022/01/24 03:13:38;;;;;;;12.18;5.47;;;;;;;-2.42;71.35;100661.25;3135007;28;20552;-62
2022/01/24 03:15:10;;;;;;;11.13;5.63;;;;;;;-2.40;71.25;100657.03;3143845;28;20059;-62
2022/01/24 03:16:43;;;;;;;10.27;5.40;;;;;;;-2.38;71.43;100664.72;3139350;28;20059;-62
2022/01/24 03:18:15;;;;;;;11.55;5.75;;;;;;;-2.39;71.14;100663.03;3140025;28;20520;-62
2022/01/24 03:19:47;;;;;;;13.82;6.20;;;;;;;-2.41;71.22;100662.13;3144240;28;20069;-61
2022/01/24 03:21:19;;;;;;;12.70;5.72;;;;;;;-2.39;71.33;100666.44;3137024;28;20044;-63
2022/01/24 03:22:52;;;;;;;15.20;6.82;;;;;;;-2.38;71.15;100667.28;3143162;28;20139;-62
2022/01/24 03:24:24;;;;;;;;;;;;;;;-2.56;71.31;100672.84;3142680;28;20114;-62
2022/01/24 03:25:56;;;;;;;11.63;5.65;;;;;;;-2.49;71.65;100673.84;3137772;28;19924;-62
2022/01/24 03:27:28;;;;;;;13.95;6.65;;;;;;;-2.44;71.55;100677.34;3144668;28;20109;-62
2022/01/24 03:29:00;;;;;;;12.65;6.13;;;;;;;-2.40;71.57;100674.03;3136157;28;20049;-62
2022/01/24 03:30:32;;;;;;;12.90;5.82;;;;;;;-2.40;71.50;100684.22;3144095;28;20074;-62
2022/01/24 03:32:04;;;;;;;10.88;5.90;;;;;;;-2.39;71.52;100675.78;3144336;28;20059;-62
2022/01/24 03:33:36;;;;;;;13.38;6.50;;;;;;;-2.41;71.50;100675.72;3138338;28;20044;-62
2022/01/24 03:35:09;;;;;;;14.20;7.03;;;;;;;-2.40;71.42;100674.88;3143290;28;20493;-62
2022/01/24 03:36:42;;;;;;;13.63;6.30;;;;;;;-2.40;71.49;100668.94;3140706;28;20822;-62
2022/01/24 03:38:16;;;;;;;21.17;6.80;;;;;;;-2.41;71.49;100673.19;3137774;28;20840;-62
2022/01/24 03:39:47;;;;;;;15.45;7.22;;;;;;;-2.42;71.44;100676.56;3144789;28;20110;-62
2022/01/24 03:41:19;;;;;;;13.70;7.10;;;;;;;-2.42;71.59;100675.72;3136628;28;20522;-63
2022/01/24 03:42:51;;;;;;;16.38;7.53;;;;;;;-2.46;71.51;100666.25;3139721;28;20060;-62
2022/01/24 03:44:24;;;;;;;16.92;7.78;;;;;;;-2.44;71.52;100675.66;3141879;28;20044;-62
2022/01/24 03:46:12;;;;;;;13.95;6.80;;;;;;;-2.43;71.56;100681.63;3136497;28;20105;-62
2022/01/24 03:48:01;;;;;;;12.05;5.93;;;;;;;-2.47;71.58;100682.41;3145932;28;20084;-64
2022/01/24 03:49:49;;;;;;;15.60;7.57;;;;;;;-2.46;71.73;100691.75;3145536;28;20063;-62
2022/01/24 03:51:22;;;;;;;15.20;7.53;;;;;;;-2.49;71.75;100696.78;3145684;28;20048;-61
2022/01/24 03:52:54;;;;;;;;;;;;;;;-2.66;71.90;100691.31;3141174;28;20200;-61
2022/01/24 03:54:27;;;;;;;15.50;7.95;;;;;;;-2.59;71.97;100693.19;3146839;28;20015;-62
2022/01/24 03:55:59;;;;;;;15.60;7.30;;;;;;;-2.56;72.10;100699.22;3145129;28;20544;-62
2022/01/24 03:57:31;;;;;;;14.77;7.68;;;;;;;-2.53;72.05;100699.28;3136772;28;20063;-62
2022/01/24 03:59:03;;;;;;;17.48;8.13;;;;;;;-2.50;71.81;100697.63;3140357;28;20366;-62
2022/01/24 04:00:35;;;;;;;15.63;7.95;;;;;;;-2.49;71.93;100699.34;3142034;28;20056;-62
2022/01/24 04:02:07;;;;;;;16.77;8.40;;;;;;;-2.50;71.86;100698.47;3136833;28;20049;-62
2022/01/24 04:03:40;;;;;;;19.08;9.68;;;;;;;-2.48;71.88;100701.94;3144007;28;20454;-62
2022/01/24 04:05:12;;;;;;;20.35;9.90;;;;;;;-2.50;71.92;100700.19;3143834;28;20509;-62
2022/01/24 04:06:44;;;;;;;17.50;9.30;;;;;;;-2.52;71.86;100698.44;3139554;28;20052;-62
2022/01/24 04:08:16;;;;;;;20.83;9.75;;;;;;;-2.48;71.93;100698.50;3142094;28;20654;-61
2022/01/24 04:09:50;;;;;;;20.20;10.43;;;;;;;-2.49;71.81;100701.88;3135631;28;20557;-61
2022/01/24 04:11:22;;;;;;;21.70;10.25;;;;;;;-2.53;71.72;100706.94;3142442;28;20487;-60
2022/01/24 04:12:54;;;;;;;20.40;10.25;;;;;;;-2.53;71.87;100704.38;3141516;28;20519;-61
2022/01/24 04:14:35;;;;;;;22.30;10.77;;;;;;;-2.53;71.85;100704.38;3138773;28;20050;-61
2022/01/24 04:16:29;;;;;;;21.45;11.07;;;;;;;-2.56;71.81;100709.41;3148166;28;20075;-61
2022/01/24 04:18:13;;;;;;;21.70;11.00;;;;;;;-2.61;71.96;100710.97;3135774;28;20501;-61
2022/01/24 04:21:45;;;;;;;22.10;10.27;;;;;;;-2.63;72.04;100714.31;3145262;28;20480;-62
2022/01/24 04:23:19;;;;;;;19.88;9.55;;;;;;;-2.63;72.14;100712.66;3150825;28;20368;-62
2022/01/24 04:24:59;;;;;;;20.65;10.35;;;;;;;-2.60;72.03;100716.97;3152253;28;20048;-62
2022/01/24 04:26:31;;;;;;;20.60;10.93;;;;;;;-2.64;72.09;100718.56;3152210;28;20049;-62
2022/01/24 04:28:03;;;;;;;22.17;11.35;;;;;;;-2.63;72.01;100717.75;3153579;28;20052;-62
2022/01/24 04:29:36;;;;;;;21.58;10.52;;;;;;;-2.60;71.98;100728.03;3145358;28;20094;-62
2022/01/24 04:31:08;;;;;;;24.52;10.93;;;;;;;-2.60;72.06;100725.47;3148250;28;20052;-62
2022/01/24 04:32:39;;;;;;;21.20;10.82;;;;;;;-2.60;72.16;100738.22;3153094;28;20430;-62
2022/01/24 04:34:11;;;;;;;20.33;10.20;;;;;;;-2.57;72.07;100733.19;3144686;28;20201;-62
2022/01/24 04:35:43;;;;;;;22.40;11.30;;;;;;;-2.55;72.14;100734.06;3149426;28;20148;-62
2022/01/24 04:37:15;;;;;;;21.00;11.80;;;;;;;-2.90;72.09;100676.31;3150201;28;20052;-62
2022/01/24 04:38:49;;;;;;;23.65;11.77;;;;;;;-2.54;72.14;100740.91;3147066;28;20052;-62
2022/01/24 04:40:25;;;;;;;19.80;10.82;;;;;;;-2.50;72.11;100743.53;3153202;28;20048;-62
2022/01/24 04:41:58;;;;;;;23.20;11.82;;;;;;;-2.46;72.11;100745.31;3147069;28;20121;-62
2022/01/24 04:43:45;;;;;;;22.65;11.43;;;;;;;-2.49;72.16;100745.25;3149505;28;20044;-62
2022/01/24 04:47:17;;;;;;;27.92;12.32;;;;;;;-2.47;71.92;100753.81;3153081;28;20545;-61
2022/01/24 04:50:56;;;;;;;18.48;9.55;;;;;;;-2.87;71.86;100710.41;3151196;28;20083;-62
2022/01/24 04:52:36;;;;;;;21.73;10.73;;;;;;;-2.54;71.75;100773.22;3152469;28;20044;-62
2022/01/24 04:56:04;;;;;;;32.03;16.13;;;;;;;-2.71;71.69;100777.03;3135393;28;20128;-62
2022/01/24 04:57:36;;;;;;;24.95;13.50;;;;;;;-2.74;71.69;100772.72;3146595;28;20052;-62
2022/01/24 04:59:08;;;;;;;32.83;15.63;;;;;;;-2.75;71.73;100776.97;3149495;28;20121;-61
2022/01/24 05:00:40;;;;;;;30.23;14.15;;;;;;;-2.74;71.67;100782.94;3150138;28;20531;-61
2022/01/24 05:02:12;;;;;;;27.33;13.68;;;;;;;-2.76;71.73;100782.00;3147699;28;20048;-62
2022/01/24 05:03:44;;;;;;;29.35;15.88;;;;;;;-2.80;71.68;100787.88;3151007;28;20044;-63
2022/01/24 05:05:19;;;;;;;30.75;16.08;;;;;;;-2.85;71.61;100782.66;3149578;28;20044;-63
2022/01/24 05:06:52;;;;;;;33.55;17.67;;;;;;;-2.93;71.57;100773.94;3145675;28;20493;-63
2022/01/24 05:08:24;;;;;;;34.45;17.75;;;;;;;-2.93;71.62;100786.69;3152554;28;20057;-63
2022/01/24 05:10:02;;;;;;;32.63;17.35;;;;;;;-2.98;71.75;100786.59;3147654;28;20101;-63
2022/01/24 05:11:42;;;;;;;36.83;18.83;;;;;;;-3.00;71.82;100780.56;3149019;28;20478;-62
2022/01/24 05:24:22;;;;;;;40.28;21.02;;;;;;;-3.20;72.19;100809.78;3151994;28;20047;-62
2022/01/24 05:25:54;;;;;;;38.17;21.63;;;;;;;-3.15;72.23;100815.84;3153276;28;20058;-62
2022/01/24 05:27:27;;;;;;;42.23;22.40;;;;;;;-3.13;72.17;100816.78;3145125;28;20052;-62
2022/01/24 05:28:59;;;;;;;43.45;21.98;;;;;;;-3.13;72.32;100810.81;3152779;28;20312;-62
2022/01/24 05:30:31;;;;;;;48.65;25.33;;;;;;;-3.11;72.17;100815.09;3144623;28;20174;-62
2022/01/24 05:32:05;;;;;;;39.38;21.30;;;;;;;-3.10;72.27;100818.53;3150352;28;20100;-62
2022/01/24 05:33:36;;;;;;;;;;;;;;;-3.27;72.33;100829.13;3152892;28;20403;-63
2022/01/24 05:35:09;;;;;;;29.58;14.38;;;;;;;-3.22;72.47;100825.03;3146897;28;20006;-62
2022/01/24 05:36:40;;;;;;;32.63;16.65;;;;;;;-3.16;72.56;100819.25;3152381;28;20055;-63
2022/01/24 05:38:13;;;;;;;34.78;19.15;;;;;;;-3.12;72.46;100820.19;3144495;28;20109;-62
2022/01/24 05:39:44;;;;;;;45.55;22.83;;;;;;;-3.12;72.38;100813.38;3149167;28;20122;-63
2022/01/24 05:41:17;;;;;;;43.28;22.20;;;;;;;-3.07;72.24;100814.38;3154837;28;20128;-62
2022/01/24 05:42:50;;;;;;;46.95;24.15;;;;;;;-3.07;72.10;100819.47;3153003;28;20097;-62
2022/01/24 05:44:22;;;;;;;49.83;25.15;;;;;;;-3.08;72.29;100820.28;3151762;28;20047;-62
2022/01/24 05:45:54;;;;;;;52.78;24.48;;;;;;;-3.04;72.23;100823.81;3147563;28;20052;-62
2022/01/24 05:47:26;;;;;;;50.72;24.45;;;;;;;-3.01;72.35;100821.31;3146002;28;20043;-62
2022/01/24 05:48:58;;;;;;;42.38;22.83;;;;;;;-2.99;72.42;100824.75;3153361;28;20109;-62
2022/01/24 05:50:30;;;;;;;51.25;23.90;;;;;;;-2.99;72.52;100819.66;3144894;28;20113;-62
2022/01/24 05:52:03;;;;;;;40.75;21.55;;;;;;;-2.92;72.47;100833.44;3151889;28;20098;-63
2022/01/24 05:53:34;;;;;;;41.80;22.20;;;;;;;-2.91;72.60;100830.06;3149267;28;20056;-63
2022/01/24 05:55:07;;;;;;;37.08;20.15;;;;;;;-2.88;72.51;100833.56;3144270;28;20109;-64
2022/01/24 05:56:39;;;;;;;39.97;20.52;;;;;;;-2.87;72.60;100840.41;3154001;28;20098;-64
2022/01/24 05:58:12;;;;;;;38.25;19.63;;;;;;;-2.81;72.32;100837.13;3146509;28;20052;-63
2022/01/24 05:59:44;;;;;;;;;;;;;;;-2.97;72.37;100848.59;3150625;28;20075;-62
2022/01/24 06:01:16;;;;;;;39.55;18.98;;;;;;;-2.92;72.72;100838.56;3151350;28;19928;-62
2022/01/24 06:02:48;;;;;;;35.90;17.27;;;;;;;-2.84;72.64;100844.69;3153404;28;20566;-62
2022/01/24 06:04:20;;;;;;;40.90;19.50;;;;;;;-2.81;72.55;100844.75;3154724;28;20044;-62
2022/01/24 06:05:51;;;;;;;37.00;20.08;;;;;;;-2.77;72.39;100852.53;3149782;28;20045;-62
2022/01/24 06:07:23;;;;;;;38.05;19.85;;;;;;;-2.72;72.39;100855.22;3146512;28;20082;-62
2022/01/24 06:08:55;;;;;;;37.53;18.80;;;;;;;-2.70;72.31;100857.78;3151515;28;20101;-62
2022/01/24 06:10:27;;;;;;;35.47;19.10;;;;;;;-2.68;72.31;100857.00;3145357;28;20118;-63
2022/01/24 06:11:59;;;;;;;40.70;19.55;;;;;;;-2.64;72.30;100848.59;3154029;28;20428;-62
2022/01/24 06:13:32;;;;;;;36.67;19.33;;;;;;;-2.63;72.10;100855.47;3152816;28;20044;-62
2022/01/24 06:15:05;;;;;;;37.50;19.90;;;;;;;-2.70;72.06;100848.47;3149302;28;20044;-63
2022/01/24 06:16:37;;;;;;;49.78;21.58;;;;;;;-2.56;72.24;100861.56;3151841;28;20074;-63
2022/01/24 06:18:09;;;;;;;46.10;20.35;;;;;;;-2.54;72.14;100855.69;3151709;28;20152;-63
2022/01/24 06:19:41;;;;;;;39.40;19.05;;;;;;;-2.49;72.24;100863.44;3146746;28;20047;-63
2022/01/24 06:21:13;;;;;;;43.20;19.50;;;;;;;-2.48;72.24;100859.19;3152115;28;20048;-62
2022/01/24 06:22:45;;;;;;;44.17;19.40;;;;;;;-2.40;72.09;100873.00;3153721;28;20055;-63
2022/01/24 06:24:17;;;;;;;41.05;20.33;;;;;;;-2.39;71.93;100869.66;3152519;28;20041;-63
2022/01/24 06:25:49;;;;;;;41.40;18.98;;;;;;;-2.35;72.06;100868.88;3148535;28;20105;-63
2022/01/24 06:27:21;;;;;;;37.23;18.23;;;;;;;-2.34;72.07;100878.25;3150434;28;20052;-63
2022/01/24 06:28:54;;;;;;;43.42;19.85;;;;;;;-2.33;71.94;100863.00;3148463;28;20052;-65
2022/01/24 06:30:26;;;;;;;37.75;18.45;;;;;;;-2.27;72.10;100879.28;3150658;28;20077;-65
2022/01/24 06:31:58;;;;;;;34.00;17.17;;;;;;;-2.26;72.00;100876.75;3147516;28;20044;-64
2022/01/24 06:33:30;;;;;;;40.65;18.73;;;;;;;-2.18;71.90;100884.59;3149300;28;20052;-63
2022/01/24 06:35:02;;;;;;;34.92;18.00;;;;;;;-2.14;71.82;100884.69;3145993;28;20134;-63
2022/01/24 06:36:34;;;;;;;32.13;16.73;;;;;;;-2.12;71.70;100883.06;3147624;28;20048;-64
2022/01/24 06:38:05;;;;;;;36.83;18.30;;;;;;;-2.04;71.64;100890.00;3147293;28;20439;-63
2022/01/24 06:39:37;;;;;;;40.95;21.48;;;;;;;-1.97;71.74;100891.91;3146487;28;20114;-62
2022/01/24 06:41:09;;;;;;;38.95;20.05;;;;;;;-1.91;71.73;100894.59;3148184;28;20102;-63
2022/01/24 06:42:41;;;;;;;42.15;20.98;;;;;;;-1.87;71.62;100896.38;3146370;28;20960;-62
2022/01/24 06:44:15;;;;;;;56.33;26.60;;;;;;;-1.81;71.56;100901.63;3147313;28;20367;-62
2022/01/24 06:45:47;;;;;;;40.05;20.83;;;;;;;-1.93;71.34;100879.22;3148341;28;20056;-62
2022/01/24 06:47:19;;;;;;;42.22;22.27;;;;;;;-1.72;71.08;100911.19;3147885;28;20983;-62
2022/01/24 06:48:51;;;;;;;45.08;23.17;;;;;;;-1.69;71.14;100911.25;3152893;28;20048;-61
2022/01/24 06:50:22;;;;;;;46.75;24.52;;;;;;;-1.70;71.20;100914.66;3152656;28;20048;-61
2022/01/24 06:51:54;;;;;;;42.95;19.42;;;;;;;-1.75;71.09;100922.19;3155087;28;20051;-61
2022/01/24 06:53:26;;;;;;;30.50;15.00;;;;;;;-1.79;71.13;100924.66;3155809;28;20052;-62
2022/01/24 06:54:58;;;;;;;37.42;16.45;;;;;;;-1.85;71.23;100916.00;3157311;28;20112;-62
2022/01/24 06:56:30;;;;;;;32.00;17.23;;;;;;;-1.77;71.25;100923.88;3155100;28;20056;-61
2022/01/24 06:58:02;;;;;;;33.30;16.08;;;;;;;-1.75;71.23;100927.28;3155189;28;20044;-62
2022/01/24 06:59:36;;;;;;;35.80;17.17;;;;;;;-1.75;71.24;100929.84;3155664;28;20129;-62
2022/01/24 07:01:08;;;;;;;38.20;16.58;;;;;;;-1.79;71.25;100930.63;3155949;28;20233;-61
2022/01/24 07:02:40;;;;;;;31.85;15.55;;;;;;;-1.78;71.00;100932.31;3153414;28;20114;-62
2022/01/24 07:04:12;;;;;;;35.15;15.52;;;;;;;-1.75;71.11;100924.75;3154699;28;20102;-61
2022/01/24 07:05:44;;;;;;;60.35;27.52;;;;;;;-1.66;70.82;100921.53;3153617;28;20044;-62
2022/01/24 07:07:16;;;;;;;42.72;20.85;;;;;;;-1.61;71.13;100923.38;3152687;28;20061;-62
2022/01/24 07:08:48;;;;;;;41.70;17.60;;;;;;;-1.52;70.99;100938.03;3151623;28;20052;-62
2022/01/24 07:10:20;;;;;;;41.63;18.45;;;;;;;-1.47;71.02;100940.69;3148595;28;20101;-62
2022/01/24 07:11:53;;;;;;;41.90;17.23;;;;;;;-1.43;70.77;100939.94;3149497;28;20056;-62
2022/01/24 07:13:25;;;;;;;45.53;21.85;;;;;;;-1.44;70.53;100935.66;3151950;28;20470;-62
2022/01/24 07:15:04;;;;;;;43.30;22.15;;;;;;;-1.47;70.23;100933.91;3149814;28;20048;-62
2022/01/24 07:16:59;;;;;;;41.35;20.55;;;;;;;-1.41;70.42;100933.16;3148658;28;20064;-62
2022/01/24 07:20:18;;;;;;;50.85;22.55;;;;;;;-1.40;70.29;100930.63;3149604;28;20084;-64
2022/01/24 07:21:50;;;;;;;50.92;23.30;;;;;;;-1.30;70.19;100941.94;3149480;28;20129;-62
2022/01/24 07:23:22;;;;;;;57.80;25.05;;;;;;;-1.30;69.89;100938.50;3145793;28;20056;-62
2022/01/24 07:24:54;;;;;;;60.38;26.50;;;;;;;-1.23;70.05;100942.91;3152162;28;20049;-61
2022/01/24 07:26:26;;;;;;;62.95;25.13;;;;;;;-1.20;69.94;100948.94;3150135;28;20055;-61
2022/01/24 07:27:58;;;;;;;53.20;25.08;;;;;;;-1.15;70.01;100947.38;3148528;28;20054;-63
2022/01/24 07:29:30;;;;;;;55.43;22.00;;;;;;;-1.07;69.85;100939.84;3148987;28;20140;-62
2022/01/24 07:31:04;;;;;;;49.85;24.77;;;;;;;-0.96;69.65;100950.28;3148964;28;20387;-63
2022/01/24 07:32:36;;;;;;;54.13;24.98;;;;;;;-0.94;69.51;100951.19;3147276;28;20057;-63
2022/01/24 07:34:07;;;;;;;44.30;22.23;;;;;;;-0.82;69.44;100955.69;3151040;28;20048;-62
2022/01/24 07:35:39;;;;;;;43.88;21.60;;;;;;;-0.66;69.28;100946.59;3155826;28;20048;-63
2022/01/24 07:37:11;;;;;;;43.53;22.38;;;;;;;-0.52;68.99;100951.13;3152010;28;20044;-62
2022/01/24 07:38:43;;;;;;;45.60;19.75;;;;;;;-0.39;68.68;100948.78;3152570;28;20052;-62
2022/01/24 07:40:15;;;;;;;36.05;17.85;;;;;;;-0.24;68.53;100954.19;3146595;28;20049;-63
2022/01/24 07:41:47;;;;;;;36.47;18.52;;;;;;;-0.12;68.13;100962.09;3150661;28;20196;-62
2022/01/24 07:43:19;;;;;;;30.90;15.90;;;;;;;-0.03;67.78;100956.25;3149361;28;20056;-64
2022/01/24 07:44:51;;;;;;;35.22;18.67;;;;;;;-0.01;67.57;100957.13;3155470;28;20384;-62
2022/01/24 07:46:25;;;;;;;37.80;18.90;;;;;;;0.09;67.26;100955.56;3150662;28;20055;-61
2022/01/24 07:47:57;;;;;;;30.98;16.58;;;;;;;0.15;67.15;100954.00;3149290;28;20208;-62
2022/01/24 07:49:31;;;;;;;33.30;17.77;;;;;;;0.22;66.91;100963.50;3149601;28;20056;-62
2022/01/24 07:51:04;;;;;;;33.60;17.38;;;;;;;0.32;66.82;100968.75;3147002;28;20513;-62
2022/01/24 07:52:36;;;;;;;34.13;17.15;;;;;;;0.43;66.73;100969.78;3151787;28;20044;-62
2022/01/24 07:54:09;;;;;;;29.48;15.02;;;;;;;0.57;66.53;100965.72;3150648;28;20066;-62
2022/01/24 07:55:41;;;;;;;29.42;13.65;;;;;;;0.74;65.90;100957.38;3149401;28;20048;-62
2022/01/24 07:57:14;;;;;;;26.77;13.70;;;;;;;0.91;65.53;100955.91;3152936;28;20047;-62
2022/01/24 07:58:46;;;;;;;29.25;12.73;;;;;;;1.09;64.78;100955.28;3151454;28;20040;-62
2022/01/24 08:00:18;;;;;;;28.13;12.18;;;;;;;1.25;64.04;100949.50;3150857;28;20056;-63
2022/01/24 08:01:51;;;;;;;20.15;9.75;;;;;;;1.40;63.06;100946.22;3151391;28;20109;-60
2022/01/24 08:03:23;;;;;;;13.98;8.05;;;;;;;1.50;61.93;100949.75;3146808;28;20095;-62
2022/01/24 08:04:55;;;;;;;18.58;8.38;;;;;;;1.61;60.88;100950.72;3149205;28;20108;-62
2022/01/24 08:06:27;;;;;;;16.80;8.88;;;;;;;1.65;59.75;100952.47;3150198;28;20043;-63
2022/01/24 08:07:59;;;;;;;17.52;8.45;;;;;;;1.64;59.31;100943.03;3145727;28;20102;-63
2022/01/24 08:09:31;;;;;;;19.05;10.27;;;;;;;1.74;59.24;100943.97;3148459;28;20422;-63
2022/01/24 08:11:03;;;;;;;17.33;9.25;;;;;;;1.87;59.04;100944.97;3151403;28;20048;-62
2022/01/24 08:12:35;;;;;;;13.32;6.65;;;;;;;2.05;57.85;100952.81;3148714;28;20389;-63
2022/01/24 08:14:08;;;;;;;16.52;8.73;;;;;;;2.18;56.93;100948.63;3153658;28;20056;-63
2022/01/24 08:15:40;;;;;;;16.25;8.48;;;;;;;2.38;56.44;100957.34;3148207;28;20045;-63
2022/01/24 08:17:14;;;;;;;14.85;7.35;;;;;;;2.52;55.29;100954.03;3150155;28;20065;-63
2022/01/24 08:18:50;;;;;;;14.50;7.43;;;;;;;2.58;54.99;100954.06;3147276;28;20117;-62